Time;durP1;ratioP1;P1;durP2;ratioP2;P2;SDS_P1;SDS_P2;PMS_P1;PMS_P2;Temp;Humidity;BMP_temperature;BMP_pressure;BME280_temperature;BME280_humidity;BME280_pressure;Samples;Min_cycle;Max_cycle;Signal;HPM_P1;HPM_P2
2020/12/07 00:00:51;;;;;;;59.97;46.03;;;;;;;;;;5075083;28;20536;-80
2020/12/07 00:03:18;;;;;;;50.78;42.45;;;;;;;;;;5057504;28;20601;-80
2020/12/07 00:05:45;;;;;;;57.58;43.25;;;;;;;;;;5075446;28;20197;-80
2020/12/07 00:08:12;;;;;;;52.53;43.65;;;;;;;;;;5075259;28;20228;-80
2020/12/07 00:10:39;;;;;;;53.75;41.58;;;;;;;;;;5075027;28;20244;-81
2020/12/07 00:13:06;;;;;;;52.95;43.20;;;;;;;;;;5075011;28;20189;-79
2020/12/07 00:15:33;;;;;;;50.70;40.67;;;;;;;;;;5075166;28;20189;-80
2020/12/07 00:18:01;;;;;;;51.85;42.92;;;;;;;;;;5075137;28;20241;-80
2020/12/07 00:20:28;;;;;;;54.00;41.63;;;;;;;;;;5074636;28;20657;-80
2020/12/07 00:22:56;;;;;;;52.45;41.25;;;;;;;;;;5056924;28;20205;-80
2020/12/07 00:25:23;;;;;;;57.40;43.25;;;;;;;;;;5075097;28;20193;-80
2020/12/07 00:27:50;;;;;;;47.35;41.35;;;;;;;;;;5075025;28;20560;-80
2020/12/07 00:30:17;;;;;;;43.97;38.80;;;;;;;;;;5074913;28;20188;-80
2020/12/07 00:32:43;;;;;;;54.83;42.20;;;;;;;;;;5074515;28;20626;-81
2020/12/07 00:35:11;;;;;;;46.58;41.17;;;;;;;;;;5057112;28;20197;-80
2020/12/07 00:37:38;;;;;;;46.42;40.03;;;;;;;;;;5074772;28;20534;-80
2020/12/07 00:40:05;;;;;;;49.72;41.05;;;;;;;;;;5056578;28;20262;-81
2020/12/07 00:42:32;;;;;;;50.42;40.75;;;;;;;;;;5074676;28;20544;-80
2020/12/07 00:44:59;;;;;;;55.08;41.25;;;;;;;;;;5074800;28;20188;-80
2020/12/07 00:47:26;;;;;;;49.42;40.60;;;;;;;;;;5074500;28;20237;-80
2020/12/07 00:49:53;;;;;;;49.78;41.17;;;;;;;;;;5074628;28;20193;-80
2020/12/07 00:52:20;;;;;;;48.83;40.83;;;;;;;;;;5074373;28;20658;-80
2020/12/07 00:54:47;;;;;;;47.55;42.08;;;;;;;;;;5074233;28;20190;-80
2020/12/07 00:57:14;;;;;;;46.00;39.25;;;;;;;;;;5074496;28;20194;-80
2020/12/07 00:59:41;;;;;;;45.90;39.95;;;;;;;;;;5074233;28;20655;-80
2020/12/07 01:02:08;;;;;;;45.63;39.38;;;;;;;;;;5074227;28;20222;-80
2020/12/07 01:04:35;;;;;;;49.08;42.42;;;;;;;;;;5073722;28;20189;-80
2020/12/07 01:07:02;;;;;;;44.30;39.63;;;;;;;;;;5074042;28;20217;-80
2020/12/07 01:09:30;;;;;;;46.05;40.05;;;;;;;;;;5056447;28;20197;-80
2020/12/07 01:11:57;;;;;;;47.25;40.47;;;;;;;;;;5073927;28;20210;-80
2020/12/07 01:14:24;;;;;;;44.13;39.30;;;;;;;;;;5074122;28;20238;-80
2020/12/07 01:16:51;;;;;;;43.38;37.65;;;;;;;;;;5073582;28;20207;-80
2020/12/07 01:19:19;;;;;;;44.17;39.47;;;;;;;;;;5073838;28;20185;-80
2020/12/07 01:21:45;;;;;;;45.03;38.95;;;;;;;;;;5074183;28;20189;-80
2020/12/07 01:24:12;;;;;;;46.22;40.50;;;;;;;;;;5073964;28;20655;-80
2020/12/07 01:26:40;;;;;;;43.90;38.38;;;;;;;;;;5073941;28;20639;-81
2020/12/07 01:29:08;;;;;;;47.33;39.25;;;;;;;;;;5074328;28;20251;-80
2020/12/07 01:31:35;;;;;;;44.17;37.55;;;;;;;;;;5073687;28;20558;-80
2020/12/07 01:34:02;;;;;;;41.75;37.30;;;;;;;;;;5073921;28;20699;-79
2020/12/07 01:36:29;;;;;;;54.30;40.53;;;;;;;;;;5074146;28;20192;-80
2020/12/07 01:38:55;;;;;;;40.40;36.00;;;;;;;;;;5074097;28;20184;-80
2020/12/07 01:41:22;;;;;;;43.13;38.13;;;;;;;;;;5073509;28;20239;-80
2020/12/07 01:43:50;;;;;;;46.78;39.40;;;;;;;;;;5073579;28;20199;-80
2020/12/07 01:46:20;;;;;;;48.17;39.03;;;;;;;;;;5055929;28;20209;-80
2020/12/07 01:48:47;;;;;;;43.28;38.00;;;;;;;;;;5073942;28;20217;-80
2020/12/07 01:51:14;;;;;;;43.50;37.20;;;;;;;;;;5073663;28;20596;-79
2020/12/07 01:53:41;;;;;;;42.83;38.38;;;;;;;;;;5073738;28;20196;-80
2020/12/07 01:56:08;;;;;;;41.38;37.30;;;;;;;;;;5073150;28;20551;-79
2020/12/07 01:58:35;;;;;;;41.13;36.72;;;;;;;;;;5073589;28;20197;-81
2020/12/07 02:01:03;;;;;;;42.88;38.03;;;;;;;;;;5073484;28;20196;-80
2020/12/07 02:03:30;;;;;;;47.15;39.30;;;;;;;;;;5073404;28;20197;-80
2020/12/07 02:05:58;;;;;;;41.25;36.42;;;;;;;;;;5055842;28;20201;-80
2020/12/07 02:08:24;;;;;;;41.80;37.33;;;;;;;;;;5073125;28;20239;-80
2020/12/07 02:10:52;;;;;;;41.70;37.40;;;;;;;;;;5073809;28;20189;-80
2020/12/07 02:13:18;;;;;;;40.40;36.13;;;;;;;;;;5073903;28;20191;-80
2020/12/07 02:15:45;;;;;;;46.42;39.38;;;;;;;;;;5075638;28;20196;-80
2020/12/07 02:18:13;;;;;;;43.60;37.80;;;;;;;;;;5059266;28;20201;-79
2020/12/07 02:20:46;;;;;;;42.60;38.25;;;;;;;;;;5077357;28;20188;-80
2020/12/07 02:23:13;;;;;;;43.40;38.10;;;;;;;;;;5059292;28;20275;-80
2020/12/07 02:25:40;;;;;;;42.55;37.97;;;;;;;;;;5059548;28;20208;-80
2020/12/07 02:28:07;;;;;;;41.53;37.40;;;;;;;;;;5076724;28;20238;-80
2020/12/07 02:30:34;;;;;;;42.25;37.95;;;;;;;;;;5077106;28;20268;-81
2020/12/07 02:33:01;;;;;;;39.40;35.50;;;;;;;;;;5076984;28;20244;-80
2020/12/07 02:35:28;;;;;;;44.45;39.90;;;;;;;;;;5077075;28;20201;-80
2020/12/07 02:37:55;;;;;;;42.35;38.25;;;;;;;;;;5076992;28;20196;-79
2020/12/07 02:40:22;;;;;;;40.80;37.10;;;;;;;;;;5077010;28;20192;-80
2020/12/07 02:42:49;;;;;;;42.67;38.20;;;;;;;;;;5077359;28;20319;-80
2020/12/07 02:45:17;;;;;;;41.33;37.08;;;;;;;;;;5077005;28;20189;-80
2020/12/07 02:47:44;;;;;;;40.25;35.90;;;;;;;;;;5076883;28;20228;-80
2020/12/07 02:50:12;;;;;;;40.40;36.38;;;;;;;;;;5076494;28;20550;-80
2020/12/07 02:52:39;;;;;;;40.13;36.13;;;;;;;;;;5076813;28;20656;-81
2020/12/07 02:55:08;;;;;;;42.40;38.25;;;;;;;;;;5076514;28;20201;-80
2020/12/07 02:57:34;;;;;;;40.35;36.22;;;;;;;;;;5076967;28;20185;-80
2020/12/07 03:00:01;;;;;;;42.88;38.20;;;;;;;;;;5076762;28;20184;-80
2020/12/07 03:02:28;;;;;;;41.55;37.55;;;;;;;;;;5076951;28;20189;-80
2020/12/07 03:04:55;;;;;;;40.13;36.20;;;;;;;;;;5076592;28;20721;-80
2020/12/07 03:07:22;;;;;;;40.75;36.75;;;;;;;;;;5076829;28;20220;-80
2020/12/07 03:09:49;;;;;;;39.72;35.72;;;;;;;;;;5076361;28;20281;-80
2020/12/07 03:12:17;;;;;;;43.20;37.53;;;;;;;;;;5058781;28;20208;-80
2020/12/07 03:14:44;;;;;;;41.10;37.30;;;;;;;;;;5076427;28;20190;-80
2020/12/07 03:17:11;;;;;;;45.40;36.83;;;;;;;;;;5076728;28;20193;-80
2020/12/07 03:19:38;;;;;;;42.05;37.60;;;;;;;;;;5058762;28;20193;-80
2020/12/07 03:22:05;;;;;;;40.13;35.88;;;;;;;;;;5076112;28;20189;-80
2020/12/07 03:24:32;;;;;;;38.78;34.95;;;;;;;;;;5076145;28;20192;-80
2020/12/07 03:26:59;;;;;;;39.75;35.70;;;;;;;;;;5075624;28;20243;-80
2020/12/07 03:29:26;;;;;;;40.38;36.47;;;;;;;;;;5076388;28;20197;-80
2020/12/07 03:31:53;;;;;;;42.30;37.92;;;;;;;;;;5075805;28;20236;-80
2020/12/07 03:34:20;;;;;;;39.28;35.30;;;;;;;;;;5076106;28;20645;-80
2020/12/07 03:36:48;;;;;;;39.50;35.70;;;;;;;;;;5076236;28;20290;-80
2020/12/07 03:39:15;;;;;;;37.85;34.25;;;;;;;;;;5075969;28;20209;-80
2020/12/07 03:41:42;;;;;;;35.30;31.90;;;;;;;;;;5076067;28;20189;-79
2020/12/07 03:44:09;;;;;;;38.05;34.35;;;;;;;;;;5076090;28;20211;-80
2020/12/07 03:46:37;;;;;;;36.92;33.65;;;;;;;;;;5075831;28;20221;-80
2020/12/07 03:49:04;;;;;;;35.42;32.05;;;;;;;;;;5075903;28;20549;-80
2020/12/07 03:51:31;;;;;;;36.40;33.08;;;;;;;;;;5075855;28;20199;-80
2020/12/07 03:53:57;;;;;;;37.92;34.08;;;;;;;;;;5066875;28;20190;-80
2020/12/07 03:56:24;;;;;;;36.58;33.08;;;;;;;;;;5075686;28;20197;-80
2020/12/07 03:58:51;;;;;;;36.95;33.53;;;;;;;;;;5057769;28;20205;-80
2020/12/07 04:01:18;;;;;;;35.95;32.65;;;;;;;;;;5075562;28;20210;-80
2020/12/07 04:03:49;;;;;;;36.95;33.25;;;;;;;;;;5075620;28;20189;-80
2020/12/07 04:06:20;;;;;;;36.08;32.47;;;;;;;;;;5074898;28;20207;-81
2020/12/07 04:08:47;;;;;;;32.53;29.70;;;;;;;;;;5075488;28;20216;-80
2020/12/07 04:11:14;;;;;;;29.98;27.27;;;;;;;;;;5057256;28;20205;-80
2020/12/07 04:13:41;;;;;;;30.73;28.15;;;;;;;;;;5074865;28;20654;-80
2020/12/07 04:16:08;;;;;;;29.92;27.52;;;;;;;;;;5074857;28;20192;-81
2020/12/07 04:18:35;;;;;;;32.13;29.55;;;;;;;;;;5074810;28;20187;-80
2020/12/07 04:21:03;;;;;;;31.40;28.75;;;;;;;;;;5074984;28;20192;-80
2020/12/07 04:23:30;;;;;;;31.42;28.83;;;;;;;;;;5074547;28;20197;-80
2020/12/07 04:25:57;;;;;;;30.35;27.88;;;;;;;;;;5074695;28;20192;-80
2020/12/07 04:28:24;;;;;;;30.10;27.67;;;;;;;;;;5075048;28;20567;-80
2020/12/07 04:30:51;;;;;;;28.80;26.50;;;;;;;;;;5074673;28;20208;-79
2020/12/07 04:33:18;;;;;;;30.08;27.73;;;;;;;;;;5074297;28;20228;-80
2020/12/07 04:35:45;;;;;;;26.95;24.90;;;;;;;;;;5074343;28;20202;-79
2020/12/07 04:38:14;;;;;;;28.30;26.00;;;;;;;;;;5074317;28;20200;-80
2020/12/07 04:40:41;;;;;;;28.33;26.17;;;;;;;;;;5074251;28;20196;-79
2020/12/07 04:43:08;;;;;;;26.73;24.52;;;;;;;;;;5074563;28;20189;-79
2020/12/07 04:45:35;;;;;;;26.23;24.35;;;;;;;;;;5074616;28;20239;-79
2020/12/07 04:48:02;;;;;;;27.45;25.35;;;;;;;;;;5056244;28;20239;-80
2020/12/07 04:50:30;;;;;;;26.27;24.38;;;;;;;;;;5074464;28;20633;-79
2020/12/07 04:52:57;;;;;;;25.70;23.90;;;;;;;;;;5074330;28;20185;-80
2020/12/07 04:55:25;;;;;;;26.10;24.30;;;;;;;;;;5074344;28;20210;-79
2020/12/07 04:57:53;;;;;;;25.77;23.98;;;;;;;;;;5074180;28;20242;-79
2020/12/07 05:00:22;;;;;;;26.45;24.58;;;;;;;;;;5074052;28;20228;-79
2020/12/07 05:02:50;;;;;;;27.88;25.85;;;;;;;;;;5074074;28;20199;-79
2020/12/07 05:05:17;;;;;;;25.88;24.08;;;;;;;;;;5074418;28;20196;-79
2020/12/07 05:07:48;;;;;;;25.92;24.02;;;;;;;;;;5056554;28;20216;-79
2020/12/07 05:10:17;;;;;;;28.50;26.40;;;;;;;;;;5074158;28;20191;-79
2020/12/07 05:12:49;;;;;;;26.38;24.58;;;;;;;;;;5073890;28;20192;-79
2020/12/07 05:15:16;;;;;;;27.50;25.35;;;;;;;;;;5074002;28;20699;-80
2020/12/07 05:17:44;;;;;;;27.00;25.10;;;;;;;;;;5074063;28;20192;-79
2020/12/07 05:20:10;;;;;;;26.33;24.52;;;;;;;;;;5074097;28;20197;-79
2020/12/07 05:22:40;;;;;;;25.45;23.75;;;;;;;;;;5074069;28;20254;-79
2020/12/07 05:25:07;;;;;;;25.45;23.85;;;;;;;;;;5073774;28;20194;-79
2020/12/07 05:27:35;;;;;;;25.52;23.90;;;;;;;;;;5073650;28;20626;-79
2020/12/07 05:30:12;;;;;;;25.35;23.75;;;;;;;;;;5074056;28;20333;-79
2020/12/07 05:32:39;;;;;;;25.63;24.10;;;;;;;;;;5073406;28;20281;-79
2020/12/07 05:35:07;;;;;;;26.52;24.50;;;;;;;;;;5073889;28;20192;-79
2020/12/07 05:37:34;;;;;;;26.08;24.48;;;;;;;;;;5073624;28;20192;-79
2020/12/07 05:40:02;;;;;;;25.80;24.00;;;;;;;;;;5073490;28;20922;-79
2020/12/07 05:42:30;;;;;;;27.17;25.38;;;;;;;;;;5073892;28;20242;-80
2020/12/07 05:44:57;;;;;;;25.98;24.27;;;;;;;;;;5073512;28;20185;-81
2020/12/07 05:47:25;;;;;;;25.95;24.20;;;;;;;;;;5073281;28;20271;-79
2020/12/07 05:49:53;;;;;;;27.52;25.63;;;;;;;;;;5073891;28;20578;-79
2020/12/07 05:52:23;;;;;;;27.40;25.50;;;;;;;;;;5077980;28;20211;-79
2020/12/07 05:54:51;;;;;;;26.42;24.63;;;;;;;;;;5059690;28;20262;-79
2020/12/07 05:57:18;;;;;;;26.65;24.83;;;;;;;;;;5077741;28;20189;-79
2020/12/07 05:59:46;;;;;;;27.80;25.90;;;;;;;;;;5077482;28;20192;-79
2020/12/07 06:02:16;;;;;;;27.13;25.23;;;;;;;;;;5077698;28;20546;-79
2020/12/07 06:04:44;;;;;;;28.10;26.15;;;;;;;;;;5077662;28;20197;-80
2020/12/07 06:07:12;;;;;;;28.38;26.42;;;;;;;;;;5060120;28;20251;-79
2020/12/07 06:09:41;;;;;;;27.85;25.95;;;;;;;;;;5059431;28;20228;-79
2020/12/07 06:12:10;;;;;;;26.45;24.67;;;;;;;;;;5077644;28;20250;-79
2020/12/07 06:14:38;;;;;;;27.00;25.10;;;;;;;;;;5077590;28;20189;-79
2020/12/07 06:17:05;;;;;;;26.98;25.17;;;;;;;;;;5060152;28;20185;-79
2020/12/07 06:19:33;;;;;;;28.00;25.90;;;;;;;;;;5077327;28;20201;-80
2020/12/07 06:22:01;;;;;;;29.48;27.27;;;;;;;;;;5077430;28;20212;-79
2020/12/07 06:24:38;;;;;;;28.23;26.33;;;;;;;;;;5077168;28;20196;-79
2020/12/07 06:27:06;;;;;;;27.08;25.17;;;;;;;;;;5077176;28;20294;-79
2020/12/07 06:29:33;;;;;;;27.58;25.77;;;;;;;;;;5077000;28;20223;-79
2020/12/07 06:32:00;;;;;;;28.80;26.65;;;;;;;;;;5077324;28;20228;-79
2020/12/07 06:34:34;;;;;;;27.92;26.05;;;;;;;;;;5077381;28;20195;-79
2020/12/07 06:37:01;;;;;;;27.08;25.35;;;;;;;;;;5059529;28;20294;-81
2020/12/07 06:39:41;;;;;;;27.33;25.52;;;;;;;;;;5076821;28;20190;-79
2020/12/07 06:42:09;;;;;;;27.02;25.35;;;;;;;;;;5059106;28;20250;-80
2020/12/07 06:44:36;;;;;;;27.42;25.50;;;;;;;;;;5076998;28;20216;-80
2020/12/07 06:47:06;;;;;;;26.85;25.15;;;;;;;;;;5077019;28;20577;-79
2020/12/07 06:49:38;;;;;;;26.85;25.05;;;;;;;;;;5076551;28;20620;-80
2020/12/07 06:52:10;;;;;;;25.70;24.02;;;;;;;;;;5076975;28;20189;-79
2020/12/07 06:57:28;;;;;;;25.88;24.20;;;;;;;;;;5076986;28;20207;-80
2020/12/07 06:59:56;;;;;;;26.17;24.48;;;;;;;;;;5076411;28;20658;-80
2020/12/07 07:02:22;;;;;;;26.05;24.35;;;;;;;;;;5075125;28;20191;-80
2020/12/07 07:04:53;;;;;;;25.70;24.00;;;;;;;;;;5076414;28;20207;-80
2020/12/07 07:07:21;;;;;;;25.67;24.05;;;;;;;;;;5076558;28;20201;-79
2020/12/07 07:09:48;;;;;;;25.20;23.60;;;;;;;;;;5058610;28;20303;-80
2020/12/07 07:12:16;;;;;;;25.42;23.83;;;;;;;;;;5076258;28;20200;-80
2020/12/07 07:14:43;;;;;;;25.63;24.02;;;;;;;;;;5076166;28;20196;-78
2020/12/07 07:17:10;;;;;;;25.50;23.80;;;;;;;;;;5075733;28;20201;-80
2020/12/07 07:19:37;;;;;;;25.95;24.25;;;;;;;;;;5076012;28;20189;-80
2020/12/07 07:22:04;;;;;;;25.00;23.40;;;;;;;;;;5075989;28;20189;-79
2020/12/07 07:24:40;;;;;;;26.30;24.40;;;;;;;;;;5076096;28;20217;-80
2020/12/07 07:29:48;;;;;;;25.10;23.60;;;;;;;;;;5074723;28;20228;-78
2020/12/07 07:32:15;;;;;;;24.80;23.30;;;;;;;;;;5075805;28;20232;-80
2020/12/07 07:34:43;;;;;;;25.00;23.30;;;;;;;;;;5058200;28;20655;-80
2020/12/07 07:37:11;;;;;;;25.55;23.65;;;;;;;;;;5075930;28;20189;-79
2020/12/07 07:39:39;;;;;;;24.75;23.25;;;;;;;;;;5058027;28;20200;-80
2020/12/07 07:42:07;;;;;;;24.95;23.25;;;;;;;;;;5075612;28;20189;-80
2020/12/07 07:44:34;;;;;;;24.73;23.13;;;;;;;;;;5075827;28;20197;-79
2020/12/07 07:47:05;;;;;;;25.30;23.50;;;;;;;;;;5075716;28;20607;-80
2020/12/07 07:49:49;;;;;;;25.55;23.85;;;;;;;;;;5075333;28;20251;-80
2020/12/07 08:01:48;;;;;;;27.45;25.45;;;;;;;;;;5041967;28;20217;-79
2020/12/07 08:06:05;;;;;;;25.67;23.88;;;;;;;;;;5075230;28;20200;-79
2020/12/07 08:15:24;;;;;;;29.35;27.10;;;;;;;;;;5066779;28;20631;-77
2020/12/07 08:17:52;;;;;;;29.20;27.10;;;;;;;;;;5061486;28;20606;-76
2020/12/07 08:20:21;;;;;;;29.50;27.20;;;;;;;;;;5075088;28;20208;-76
2020/12/07 08:22:57;;;;;;;30.30;28.20;;;;;;;;;;5075068;28;20185;-76
2020/12/07 08:25:39;;;;;;;31.10;28.58;;;;;;;;;;5074546;28;20238;-76
2020/12/07 08:28:16;;;;;;;29.90;27.65;;;;;;;;;;5065015;28;20228;-76
2020/12/07 08:30:57;;;;;;;30.90;28.67;;;;;;;;;;5074763;28;20203;-76
2020/12/07 08:33:24;;;;;;;32.08;29.65;;;;;;;;;;5074342;28;20226;-76
2020/12/07 08:35:51;;;;;;;32.90;30.13;;;;;;;;;;5074860;28;20191;-76
2020/12/07 08:38:24;;;;;;;31.58;29.25;;;;;;;;;;5074219;28;20204;-76
2020/12/07 08:40:51;;;;;;;33.35;30.40;;;;;;;;;;5074213;28;20627;-75
2020/12/07 08:43:19;;;;;;;33.80;31.00;;;;;;;;;;5074444;28;20200;-77
2020/12/07 08:45:46;;;;;;;34.63;31.63;;;;;;;;;;5057083;28;20196;-77
2020/12/07 08:48:13;;;;;;;34.38;31.67;;;;;;;;;;5074185;28;20263;-76
2020/12/07 08:50:40;;;;;;;36.83;33.63;;;;;;;;;;5074250;28;20595;-77
2020/12/07 08:53:06;;;;;;;33.65;30.75;;;;;;;;;;5074356;28;20275;-76
2020/12/07 08:55:33;;;;;;;35.80;32.78;;;;;;;;;;5056535;28;20699;-75
2020/12/07 08:58:00;;;;;;;36.20;33.20;;;;;;;;;;5074190;28;20184;-76
2020/12/07 09:00:28;;;;;;;35.47;32.28;;;;;;;;;;5073833;28;20577;-76
2020/12/07 09:02:55;;;;;;;35.00;31.88;;;;;;;;;;5073777;28;20190;-75
2020/12/07 09:05:22;;;;;;;32.30;29.50;;;;;;;;;;5073790;28;20223;-75
2020/12/07 09:07:49;;;;;;;35.90;32.80;;;;;;;;;;5073944;28;20193;-75
2020/12/07 09:10:16;;;;;;;36.53;33.42;;;;;;;;;;5073641;28;20275;-75
2020/12/07 09:12:42;;;;;;;35.70;32.83;;;;;;;;;;5073644;28;20238;-75
2020/12/07 09:15:09;;;;;;;35.78;32.78;;;;;;;;;;5055595;28;20200;-75
2020/12/07 09:17:37;;;;;;;37.35;34.05;;;;;;;;;;5073609;28;20196;-75
2020/12/07 09:20:04;;;;;;;36.45;33.53;;;;;;;;;;5055875;28;20250;-77
2020/12/07 09:22:31;;;;;;;35.22;32.38;;;;;;;;;;5073721;28;20189;-77
2020/12/07 09:24:58;;;;;;;33.25;30.75;;;;;;;;;;5055081;28;20208;-77
2020/12/07 09:27:25;;;;;;;35.72;32.88;;;;;;;;;;5073475;28;20632;-76
2020/12/07 09:29:52;;;;;;;35.42;32.60;;;;;;;;;;5073791;28;20230;-75
2020/12/07 09:32:18;;;;;;;36.33;33.42;;;;;;;;;;5073336;28;20594;-76
2020/12/07 09:34:46;;;;;;;31.75;29.42;;;;;;;;;;5073719;28;20201;-76
2020/12/07 09:37:13;;;;;;;35.13;32.17;;;;;;;;;;5056085;28;20269;-79
2020/12/07 09:39:40;;;;;;;33.97;31.23;;;;;;;;;;5073466;28;20243;-79
2020/12/07 09:42:07;;;;;;;32.63;30.00;;;;;;;;;;5073116;28;20209;-80
2020/12/07 09:44:35;;;;;;;33.75;31.15;;;;;;;;;;5073724;28;20189;-80
2020/12/07 09:47:02;;;;;;;34.42;31.73;;;;;;;;;;5073315;28;20702;-80
2020/12/07 09:49:29;;;;;;;32.25;29.85;;;;;;;;;;5073353;28;20286;-80
2020/12/07 09:51:57;;;;;;;32.58;30.08;;;;;;;;;;5073393;28;20192;-80
2020/12/07 09:54:24;;;;;;;31.40;29.10;;;;;;;;;;5055618;28;20250;-80
2020/12/07 09:56:51;;;;;;;32.40;29.73;;;;;;;;;;5056185;28;20211;-80
2020/12/07 09:59:18;;;;;;;30.40;28.20;;;;;;;;;;5073284;28;20550;-80
2020/12/07 10:01:45;;;;;;;30.95;28.75;;;;;;;;;;5055508;28;20668;-80
2020/12/07 10:04:12;;;;;;;30.40;28.30;;;;;;;;;;5073263;28;20219;-80
2020/12/07 10:06:39;;;;;;;32.05;29.55;;;;;;;;;;5073574;28;20189;-80
2020/12/07 10:09:06;;;;;;;27.25;25.42;;;;;;;;;;5073102;28;20235;-80
2020/12/07 10:11:33;;;;;;;30.25;28.15;;;;;;;;;;5073178;28;20204;-79
2020/12/07 10:14:00;;;;;;;31.50;29.23;;;;;;;;;;5055581;28;20255;-80
2020/12/07 10:16:27;;;;;;;32.08;29.88;;;;;;;;;;5073501;28;20189;-80
2020/12/07 10:18:54;;;;;;;30.90;28.63;;;;;;;;;;5055535;28;20554;-80
2020/12/07 10:21:25;;;;;;;30.33;28.13;;;;;;;;;;5073068;28;20196;-80
2020/12/07 10:23:52;;;;;;;31.58;29.27;;;;;;;;;;5073034;28;20613;-80
2020/12/07 10:26:23;;;;;;;32.35;29.95;;;;;;;;;;5072987;28;20197;-78
2020/12/07 10:28:50;;;;;;;32.22;29.90;;;;;;;;;;5073025;28;20248;-80
2020/12/07 10:31:19;;;;;;;31.23;28.83;;;;;;;;;;5073380;28;20184;-81
2020/12/07 10:33:45;;;;;;;31.02;28.52;;;;;;;;;;5072977;28;20193;-79
2020/12/07 10:36:12;;;;;;;29.85;27.45;;;;;;;;;;5073650;28;20664;-80
2020/12/07 10:38:39;;;;;;;30.17;28.02;;;;;;;;;;5076733;28;20200;-80
2020/12/07 10:41:06;;;;;;;30.73;28.42;;;;;;;;;;5076877;28;20192;-79
2020/12/07 10:43:34;;;;;;;27.40;25.45;;;;;;;;;;5076564;28;20639;-79
2020/12/07 10:46:01;;;;;;;26.20;24.35;;;;;;;;;;5077134;28;20259;-80
2020/12/07 10:48:28;;;;;;;29.08;26.75;;;;;;;;;;5076667;28;20220;-80
2020/12/07 10:50:56;;;;;;;25.73;23.92;;;;;;;;;;5076822;28;20544;-80
2020/12/07 10:53:22;;;;;;;30.00;27.85;;;;;;;;;;5077216;28;20197;-78
2020/12/07 10:55:50;;;;;;;30.52;28.20;;;;;;;;;;5077164;28;20271;-80
2020/12/07 10:58:17;;;;;;;30.73;27.92;;;;;;;;;;5059100;28;20578;-84
2020/12/07 11:00:45;;;;;;;30.02;27.75;;;;;;;;;;5076400;28;20189;-80
2020/12/07 11:03:12;;;;;;;31.35;29.05;;;;;;;;;;5076527;28;20258;-78
2020/12/07 11:05:40;;;;;;;30.92;28.63;;;;;;;;;;5076458;28;20238;-79
2020/12/07 11:08:13;;;;;;;30.35;28.15;;;;;;;;;;5075999;28;20634;-81
2020/12/07 11:10:40;;;;;;;28.58;26.38;;;;;;;;;;5076355;28;20287;-78
2020/12/07 11:13:16;;;;;;;29.10;27.02;;;;;;;;;;5076603;28;20289;-82
2020/12/07 11:15:44;;;;;;;28.90;26.85;;;;;;;;;;5076753;28;20307;-82
2020/12/07 11:18:11;;;;;;;28.30;26.30;;;;;;;;;;5077643;28;20576;-82
2020/12/07 11:20:38;;;;;;;29.25;27.10;;;;;;;;;;5076980;28;20586;-82
2020/12/07 11:23:05;;;;;;;28.60;26.60;;;;;;;;;;5076442;28;20194;-76
2020/12/07 11:25:32;;;;;;;26.30;24.48;;;;;;;;;;5075790;28;20547;-77
2020/12/07 11:27:59;;;;;;;27.85;25.88;;;;;;;;;;5076139;28;20191;-76
2020/12/07 11:30:25;;;;;;;30.52;28.48;;;;;;;;;;5075885;28;20220;-77
2020/12/07 11:32:52;;;;;;;29.30;27.25;;;;;;;;;;5075342;28;20236;-76
2020/12/07 11:35:20;;;;;;;29.40;27.50;;;;;;;;;;5075544;28;20570;-76
2020/12/07 11:37:51;;;;;;;28.92;27.00;;;;;;;;;;5075848;28;20194;-75
2020/12/07 11:40:27;;;;;;;29.10;27.10;;;;;;;;;;5075363;28;20193;-76
2020/12/07 11:43:03;;;;;;;27.67;25.67;;;;;;;;;;5075420;28;20246;-78
2020/12/07 11:45:30;;;;;;;27.55;25.65;;;;;;;;;;5057888;28;20224;-81
2020/12/07 11:47:56;;;;;;;26.63;24.73;;;;;;;;;;5074949;28;20225;-83
2020/12/07 11:50:24;;;;;;;26.80;24.98;;;;;;;;;;5075545;28;20661;-80
2020/12/07 11:52:51;;;;;;;29.10;26.90;;;;;;;;;;5075786;28;20196;-79
2020/12/07 11:55:18;;;;;;;30.08;27.75;;;;;;;;;;5075591;28;20197;-81
2020/12/07 11:57:45;;;;;;;28.27;26.27;;;;;;;;;;5075257;28;20186;-78
2020/12/07 12:00:13;;;;;;;28.70;26.80;;;;;;;;;;5057637;28;20209;-78
2020/12/07 12:02:40;;;;;;;27.13;25.23;;;;;;;;;;5075309;28;20662;-78
2020/12/07 12:05:07;;;;;;;27.73;25.73;;;;;;;;;;5057541;28;20197;-78
2020/12/07 12:07:35;;;;;;;27.25;25.38;;;;;;;;;;5075117;28;20192;-79
2020/12/07 12:10:01;;;;;;;27.23;25.38;;;;;;;;;;5075021;28;20246;-79
2020/12/07 12:12:28;;;;;;;28.45;26.45;;;;;;;;;;5075069;28;20192;-80
2020/12/07 12:14:55;;;;;;;26.30;24.55;;;;;;;;;;5074739;28;20560;-78
2020/12/07 12:17:22;;;;;;;25.73;24.02;;;;;;;;;;5075362;28;20566;-79
2020/12/07 12:19:49;;;;;;;27.13;25.23;;;;;;;;;;5057235;28;20197;-81
2020/12/07 12:22:16;;;;;;;25.30;23.63;;;;;;;;;;5074736;28;20212;-77
2020/12/07 12:24:44;;;;;;;26.92;25.13;;;;;;;;;;5074052;28;20189;-80
2020/12/07 12:27:10;;;;;;;26.13;24.42;;;;;;;;;;5056914;28;20210;-77
2020/12/07 12:29:37;;;;;;;26.15;24.35;;;;;;;;;;5075408;28;20626;-84
2020/12/07 12:32:04;;;;;;;24.77;23.17;;;;;;;;;;5075589;28;20233;-82
2020/12/07 12:34:31;;;;;;;26.90;24.90;;;;;;;;;;5075126;28;20192;-82
2020/12/07 12:36:58;;;;;;;26.05;24.25;;;;;;;;;;5067155;28;20196;-84
2020/12/07 12:39:25;;;;;;;26.40;24.60;;;;;;;;;;5074393;28;20197;-90
2020/12/07 12:41:52;;;;;;;25.25;23.60;;;;;;;;;;5074950;28;20196;-84
2020/12/07 12:44:19;;;;;;;25.00;23.40;;;;;;;;;;5075158;28;20199;-81
2020/12/07 12:46:46;;;;;;;25.25;23.52;;;;;;;;;;5074379;28;20252;-77
2020/12/07 12:49:13;;;;;;;25.77;23.98;;;;;;;;;;5056334;28;20640;-78
2020/12/07 12:51:44;;;;;;;26.75;24.95;;;;;;;;;;5056783;28;20246;-78
2020/12/07 12:54:11;;;;;;;26.60;24.77;;;;;;;;;;5074232;28;20185;-80
2020/12/07 12:56:38;;;;;;;25.60;23.95;;;;;;;;;;5074734;28;20590;-86
2020/12/07 12:59:06;;;;;;;26.52;24.58;;;;;;;;;;5073534;28;20696;-87
2020/12/07 13:01:35;;;;;;;27.08;25.17;;;;;;;;;;5073914;28;20283;-78
2020/12/07 13:04:02;;;;;;;24.83;23.13;;;;;;;;;;5074354;28;20204;-84
2020/12/07 13:06:33;;;;;;;25.80;24.10;;;;;;;;;;5074338;28;20205;-84
2020/12/07 13:09:00;;;;;;;28.05;26.15;;;;;;;;;;5074524;28;20614;-79
2020/12/07 13:11:30;;;;;;;27.02;25.15;;;;;;;;;;5056504;28;20202;-79
2020/12/07 13:13:56;;;;;;;26.65;24.77;;;;;;;;;;5073617;28;20185;-85
2020/12/07 13:16:28;;;;;;;26.48;24.58;;;;;;;;;;5056537;28;20211;-81
2020/12/07 13:18:57;;;;;;;26.63;24.55;;;;;;;;;;5074247;28;20626;-82
2020/12/07 13:21:27;;;;;;;25.80;24.10;;;;;;;;;;5074429;28;20243;-80
2020/12/07 13:23:59;;;;;;;26.77;24.77;;;;;;;;;;5073888;28;20185;-84
2020/12/07 13:26:32;;;;;;;26.65;24.85;;;;;;;;;;5074397;28;20235;-86
2020/12/07 13:28:59;;;;;;;28.55;26.45;;;;;;;;;;5074342;28;20217;-85
2020/12/07 13:31:27;;;;;;;27.02;25.08;;;;;;;;;;5074196;28;20205;-83
2020/12/07 13:33:53;;;;;;;26.15;24.33;;;;;;;;;;5074144;28;20587;-84
2020/12/07 13:36:20;;;;;;;27.08;25.20;;;;;;;;;;5074528;28;20196;-84
2020/12/07 13:38:48;;;;;;;27.25;25.35;;;;;;;;;;5074430;28;20203;-84
2020/12/07 13:41:15;;;;;;;26.77;24.88;;;;;;;;;;5074179;28;20199;-84
2020/12/07 13:43:42;;;;;;;28.50;26.50;;;;;;;;;;5074283;28;20196;-84
2020/12/07 13:46:10;;;;;;;26.15;24.27;;;;;;;;;;5073854;28;20229;-84
2020/12/07 13:48:37;;;;;;;27.08;25.27;;;;;;;;;;5074391;28;20225;-86
2020/12/07 13:51:04;;;;;;;25.85;24.05;;;;;;;;;;5073920;28;20194;-77
2020/12/07 13:53:32;;;;;;;26.27;24.58;;;;;;;;;;5073310;28;20267;-78
2020/12/07 13:55:58;;;;;;;26.75;24.90;;;;;;;;;;5073708;28;20212;-80
2020/12/07 13:58:25;;;;;;;28.27;26.38;;;;;;;;;;5055540;28;20200;-78
2020/12/07 14:00:52;;;;;;;25.83;24.17;;;;;;;;;;5074016;28;20192;-89
2020/12/07 14:03:19;;;;;;;27.77;25.80;;;;;;;;;;5074645;28;20184;-91
2020/12/07 14:05:47;;;;;;;26.52;24.83;;;;;;;;;;5074017;28;20219;-90
2020/12/07 14:08:14;;;;;;;25.92;24.42;;;;;;;;;;5056789;28;20184;-91
2020/12/07 14:10:41;;;;;;;26.08;24.38;;;;;;;;;;5074147;28;20216;-89
2020/12/07 14:13:08;;;;;;;25.50;23.88;;;;;;;;;;5078139;28;20208;-90
2020/12/07 14:15:35;;;;;;;27.58;25.88;;;;;;;;;;5078118;28;20193;-90
2020/12/07 14:18:08;;;;;;;28.92;27.02;;;;;;;;;;5078385;28;20185;-91
2020/12/07 14:20:39;;;;;;;26.83;25.08;;;;;;;;;;5077981;28;20192;-90
2020/12/07 14:23:21;;;;;;;25.40;23.90;;;;;;;;;;5060576;28;20210;-90
2020/12/07 14:40:09;;;;;;;25.10;23.50;;;;;;;;;;5076963;28;20594;-80
2020/12/07 14:42:37;;;;;;;26.90;25.17;;;;;;;;;;5076912;28;20253;-90
2020/12/07 14:45:05;;;;;;;26.35;24.63;;;;;;;;;;5077546;28;20216;-89
2020/12/07 14:47:36;;;;;;;26.25;24.55;;;;;;;;;;5060130;28;20227;-90
2020/12/07 14:50:09;;;;;;;24.50;23.00;;;;;;;;;;5052091;28;20756;-89
2020/12/07 14:52:36;;;;;;;25.40;23.80;;;;;;;;;;5059509;28;20195;-90
2020/12/07 14:55:12;;;;;;;25.88;24.27;;;;;;;;;;5077333;28;20577;-89
2020/12/07 15:01:05;;;;;;;26.30;24.60;;;;;;;;;;5052389;28;20669;-89